Time;durP1;ratioP1;P1;durP2;ratioP2;P2;SDS_P1;SDS_P2;PMS_P1;PMS_P2;Temp;Humidity;BMP_temperature;BMP_pressure;BME280_temperature;BME280_humidity;BME280_pressure;Samples;Min_cycle;Max_cycle;Signal;HPM_P1;HPM_P2
2022/04/06 00:01:36;;;;;;;30.05;18.50;;;8.90;99.90;;;;;;5068292;28;20085;-72
2022/04/06 00:04:02;;;;;;;34.40;18.80;;;8.90;99.90;;;;;;5069840;28;20227;-71
2022/04/06 00:06:28;;;;;;;29.00;17.55;;;8.90;99.90;;;;;;5068964;28;20561;-71
2022/04/06 00:08:54;;;;;;;30.52;17.20;;;8.90;99.90;;;;;;5050752;28;20040;-71
2022/04/06 00:11:20;;;;;;;28.48;17.13;;;9.00;99.90;;;;;;5086840;28;20080;-71
2022/04/06 00:13:47;;;;;;;26.80;16.30;;;9.00;99.90;;;;;;5070212;28;20058;-71
2022/04/06 00:16:13;;;;;;;28.52;16.20;;;9.00;99.90;;;;;;5070462;28;20172;-77
2022/04/06 00:18:39;;;;;;;30.50;16.65;;;9.00;99.90;;;;;;5069217;28;20130;-77
2022/04/06 00:21:05;;;;;;;31.80;15.50;;;9.00;99.90;;;;;;5070186;28;20118;-77
2022/04/06 00:23:31;;;;;;;26.02;15.77;;;9.00;99.90;;;;;;5086522;28;20047;-78
2022/04/06 00:25:56;;;;;;;27.67;14.93;;;9.00;99.90;;;;;;5061910;28;20235;-78
2022/04/06 00:28:22;;;;;;;29.17;17.30;;;9.00;99.90;;;;;;5085417;28;20039;-75
2022/04/06 00:30:48;;;;;;;30.30;16.38;;;9.00;99.90;;;;;;5049487;28;20099;-76
2022/04/06 00:33:14;;;;;;;27.85;17.08;;;9.00;99.90;;;;;;5068135;28;20610;-76
2022/04/06 00:35:40;;;;;;;27.02;16.65;;;9.00;99.90;;;;;;5085097;28;20039;-76
2022/04/06 00:38:07;;;;;;;33.45;17.67;;;9.00;99.90;;;;;;5087381;28;20122;-76
2022/04/06 00:40:34;;;;;;;26.33;16.67;;;9.00;99.90;;;;;;5069904;28;20079;-77
2022/04/06 00:43:05;;;;;;;31.40;17.92;;;9.10;99.90;;;;;;5070394;28;20048;-77
2022/04/06 00:45:31;;;;;;;30.00;18.48;;;9.10;99.90;;;;;;5086151;28;20047;-76
2022/04/06 00:47:56;;;;;;;27.15;18.15;;;9.10;99.90;;;;;;5070369;28;20054;-77
2022/04/06 00:50:23;;;;;;;30.58;19.42;;;9.10;99.90;;;;;;5069198;28;20063;-77
2022/04/06 00:52:55;;;;;;;34.50;20.13;;;9.00;99.90;;;;;;5070877;28;20409;-77
2022/04/06 00:55:34;;;;;;;31.00;20.40;;;9.10;99.90;;;;;;5071416;28;20048;-78
2022/04/06 00:58:00;;;;;;;29.90;19.75;;;9.10;99.90;;;;;;5069446;28;20047;-78
2022/04/06 01:00:29;;;;;;;38.17;22.00;;;9.10;99.90;;;;;;5087085;28;20122;-77
2022/04/06 01:02:58;;;;;;;31.85;20.60;;;9.10;99.90;;;;;;5070368;28;20085;-77
2022/04/06 01:05:25;;;;;;;29.92;20.83;;;9.10;99.90;;;;;;5070493;28;20039;-77
2022/04/06 01:07:53;;;;;;;31.88;21.10;;;9.10;99.90;;;;;;5070534;28;20054;-77
2022/04/06 01:10:19;;;;;;;31.40;19.73;;;9.10;99.90;;;;;;5069212;28;20449;-71
2022/04/06 01:12:46;;;;;;;29.35;20.95;;;9.10;99.90;;;;;;5069323;28;20133;-71
2022/04/06 01:15:13;;;;;;;27.20;20.13;;;9.10;99.90;;;;;;5086009;28;20503;-71
2022/04/06 01:17:39;;;;;;;29.88;19.45;;;9.10;99.90;;;;;;5086355;28;20054;-71
2022/04/06 01:20:07;;;;;;;27.80;19.90;;;9.10;99.90;;;;;;5069409;28;20074;-71
2022/04/06 01:22:34;;;;;;;26.15;18.73;;;9.10;99.90;;;;;;5069568;28;20061;-71
2022/04/06 01:25:00;;;;;;;28.45;18.55;;;9.10;99.90;;;;;;5069245;28;20059;-71
2022/04/06 01:27:27;;;;;;;24.52;18.02;;;9.10;99.90;;;;;;5068786;28;20096;-70
2022/04/06 01:29:54;;;;;;;31.48;18.35;;;9.10;99.90;;;;;;5069513;28;20494;-71
2022/04/06 01:32:25;;;;;;;27.08;17.52;;;9.10;99.90;;;;;;5069750;28;20040;-70
2022/04/06 01:35:01;;;;;;;28.02;17.77;;;9.10;99.90;;;;;;5063875;28;20075;-71
2022/04/06 01:37:28;;;;;;;28.92;18.27;;;9.10;99.90;;;;;;5065717;28;20677;-72
2022/04/06 01:39:54;;;;;;;28.17;16.77;;;9.10;99.90;;;;;;5083200;28;20055;-71
2022/04/06 01:42:21;;;;;;;23.75;16.35;;;9.10;99.90;;;;;;5070306;28;20104;-71
2022/04/06 01:44:48;;;;;;;25.83;17.17;;;9.10;99.90;;;;;;5065409;28;20074;-71
2022/04/06 01:47:15;;;;;;;22.90;13.35;;;9.10;99.90;;;;;;5084488;28;20092;-71
2022/04/06 01:52:27;;;;;;;25.42;14.70;;;9.20;99.90;;;;;;5052093;28;20086;-71
2022/04/06 01:54:56;;;;;;;25.90;14.93;;;9.20;99.90;;;;;;5078535;28;20460;-70
2022/04/06 01:57:23;;;;;;;20.15;13.55;;;9.20;99.90;;;;;;5082743;28;20098;-71
2022/04/06 01:59:50;;;;;;;27.02;14.30;;;9.20;99.90;;;;;;5084058;28;20104;-71
2022/04/06 02:02:18;;;;;;;21.73;13.02;;;9.20;99.90;;;;;;5076403;28;20933;-72
2022/04/06 02:04:44;;;;;;;21.70;13.48;;;9.20;99.90;;;;;;5066571;28;20074;-72
2022/04/06 02:07:11;;;;;;;23.67;13.60;;;9.20;99.90;;;;;;5066020;28;20105;-71
2022/04/06 02:09:38;;;;;;;20.38;12.82;;;9.20;99.90;;;;;;5049809;28;20094;-72
2022/04/06 02:12:08;;;;;;;24.77;13.55;;;9.20;99.90;;;;;;5066724;28;20092;-71
2022/04/06 02:14:34;;;;;;;20.63;12.43;;;9.20;99.90;;;;;;5066385;28;20107;-71
2022/04/06 02:17:03;;;;;;;21.42;13.05;;;9.20;99.90;;;;;;5065062;28;20510;-72
2022/04/06 02:19:29;;;;;;;25.85;12.18;;;9.20;99.90;;;;;;5081150;28;20131;-78
2022/04/06 02:21:55;;;;;;;18.23;11.02;;;9.20;99.90;;;;;;5067218;28;20118;-78
2022/04/06 02:24:21;;;;;;;21.60;11.52;;;9.20;99.90;;;;;;5067941;28;20039;-71
2022/04/06 02:26:47;;;;;;;22.00;12.05;;;9.10;99.90;;;;;;5085051;28;20044;-77
2022/04/06 02:29:13;;;;;;;19.98;12.40;;;9.10;99.90;;;;;;5066758;28;20527;-70
2022/04/06 02:31:39;;;;;;;18.83;10.95;;;9.20;99.90;;;;;;5066654;28;20050;-71
2022/04/06 02:34:04;;;;;;;20.38;11.23;;;9.20;99.90;;;;;;5066893;28;20039;-71
2022/04/06 02:36:30;;;;;;;18.50;11.43;;;9.20;99.90;;;;;;5066495;28;20083;-71
2022/04/06 02:38:56;;;;;;;17.73;10.00;;;9.20;99.90;;;;;;5049837;28;20180;-71
2022/04/06 02:41:22;;;;;;;16.85;10.13;;;9.20;99.90;;;;;;5066044;28;20060;-71
2022/04/06 02:43:48;;;;;;;20.27;11.02;;;9.20;99.90;;;;;;5063532;28;20142;-71
2022/04/06 02:46:14;;;;;;;22.77;11.10;;;9.10;99.90;;;;;;5065954;28;20673;-71
2022/04/06 02:48:40;;;;;;;20.55;11.43;;;9.10;99.90;;;;;;5066000;28;20118;-71
2022/04/06 02:51:06;;;;;;;16.50;9.00;;;9.10;99.90;;;;;;5083049;28;20047;-71
2022/04/06 02:53:32;;;;;;;16.60;9.15;;;9.10;99.90;;;;;;5066175;28;20059;-71
2022/04/06 02:55:57;;;;;;;23.15;9.63;;;9.20;99.90;;;;;;5066458;28;20047;-71
2022/04/06 02:58:23;;;;;;;18.23;8.80;;;9.20;99.90;;;;;;5065236;28;20505;-73
2022/04/06 03:00:49;;;;;;;20.00;9.10;;;9.10;99.90;;;;;;5110999;27;20040;-71
2022/04/06 03:03:15;;;;;;;15.02;8.95;;;9.10;99.90;;;;;;5065038;28;20457;-71
2022/04/06 03:05:40;;;;;;;18.55;8.25;;;9.20;99.90;;;;;;5065768;28;20051;-70
2022/04/06 03:08:07;;;;;;;17.25;9.40;;;9.20;99.90;;;;;;5066536;28;20406;-71
2022/04/06 03:10:33;;;;;;;21.25;10.57;;;9.10;99.90;;;;;;5082107;28;20096;-71
2022/04/06 03:12:59;;;;;;;20.38;11.45;;;9.10;99.90;;;;;;5070045;28;20110;-71
2022/04/06 03:15:25;;;;;;;22.90;11.18;;;9.20;99.90;;;;;;5067756;28;20039;-76
2022/04/06 03:17:51;;;;;;;23.77;11.80;;;9.10;99.90;;;;;;5068207;28;20123;-78
2022/04/06 03:20:17;;;;;;;24.00;12.32;;;9.20;99.90;;;;;;5067782;28;20145;-78
2022/04/06 03:22:43;;;;;;;22.60;11.48;;;9.10;99.90;;;;;;5085079;28;20138;-78
2022/04/06 03:25:09;;;;;;;31.00;12.63;;;9.10;99.90;;;;;;5068246;28;20043;-71
2022/04/06 03:27:36;;;;;;;22.92;11.00;;;9.10;99.90;;;;;;5050097;28;20047;-71
2022/04/06 03:30:06;;;;;;;25.67;12.70;;;9.10;99.90;;;;;;5084429;28;20040;-71
2022/04/06 03:32:33;;;;;;;27.10;12.20;;;9.20;99.90;;;;;;5067129;28;20100;-71
2022/04/06 03:34:58;;;;;;;27.52;13.80;;;9.10;99.90;;;;;;5068259;28;20047;-71
2022/04/06 03:37:24;;;;;;;33.63;14.25;;;9.10;99.90;;;;;;5067711;28;20047;-71
2022/04/06 03:39:50;;;;;;;26.45;13.90;;;9.20;99.90;;;;;;5066944;28;20063;-70
2022/04/06 03:42:16;;;;;;;27.73;13.95;;;9.20;99.90;;;;;;5067804;28;20510;-70
2022/04/06 03:44:43;;;;;;;26.88;13.93;;;9.20;99.90;;;;;;5049111;28;20051;-70
2022/04/06 03:47:09;;;;;;;27.52;14.20;;;9.20;99.90;;;;;;5067037;28;20554;-70
2022/04/06 03:49:34;;;;;;;29.15;14.95;;;9.20;99.90;;;;;;5047454;28;20040;-71
2022/04/06 03:52:00;;;;;;;30.60;15.93;;;9.20;99.90;;;;;;5082856;28;20047;-70
2022/04/06 03:54:26;;;;;;;30.98;16.40;;;9.20;99.90;;;;;;5066125;28;20055;-71
2022/04/06 03:56:52;;;;;;;30.17;16.10;;;9.20;99.90;;;;;;5049498;28;20051;-70
2022/04/06 03:59:18;;;;;;;29.35;15.57;;;9.30;99.90;;;;;;5083302;28;20078;-71
2022/04/06 04:01:44;;;;;;;29.88;15.60;;;9.20;99.90;;;;;;5080689;28;20051;-71
2022/04/06 04:04:10;;;;;;;29.45;17.33;;;9.30;99.90;;;;;;5063900;28;20047;-70
2022/04/06 04:06:36;;;;;;;30.40;17.00;;;9.30;99.90;;;;;;5065740;28;20039;-70
2022/04/06 04:09:05;;;;;;;29.42;16.23;;;9.30;99.90;;;;;;5065733;28;20509;-70
2022/04/06 04:11:31;;;;;;;27.88;16.95;;;9.30;99.90;;;;;;5085938;28;20549;-71
2022/04/06 04:13:58;;;;;;;29.23;15.38;;;9.30;99.90;;;;;;5036686;28;20058;-71
2022/04/06 04:16:23;;;;;;;30.90;15.82;;;9.30;99.90;;;;;;5052948;28;20563;-71
2022/04/06 04:18:49;;;;;;;28.30;15.70;;;9.30;99.90;;;;;;5069056;28;20031;-71
2022/04/06 04:21:33;;;;;;;23.55;14.45;;;9.30;99.90;;;;;;5085618;28;20150;-70
2022/04/06 04:24:04;;;;;;;25.27;14.60;;;9.30;99.90;;;;;;5067740;28;20494;-71
2022/04/06 04:26:31;;;;;;;25.25;13.25;;;9.30;99.90;;;;;;5100890;28;20146;-70
2022/04/06 04:28:58;;;;;;;22.55;12.45;;;9.30;99.90;;;;;;5067720;28;20036;-71
2022/04/06 04:31:24;;;;;;;22.35;12.13;;;9.30;99.90;;;;;;5086084;28;20561;-71
2022/04/06 04:33:50;;;;;;;25.42;13.45;;;9.30;99.90;;;;;;5085702;28;20154;-70
2022/04/06 04:36:17;;;;;;;23.45;12.23;;;9.30;99.90;;;;;;5086269;28;20036;-70
2022/04/06 04:38:43;;;;;;;24.85;12.55;;;9.30;99.90;;;;;;5067950;28;20055;-71
2022/04/06 04:41:09;;;;;;;21.83;11.73;;;9.30;99.90;;;;;;5085475;28;20489;-70
2022/04/06 04:43:36;;;;;;;20.40;11.70;;;9.30;99.90;;;;;;5068241;28;20567;-70
2022/04/06 04:46:03;;;;;;;23.67;11.48;;;9.20;99.90;;;;;;5085981;28;20051;-70
2022/04/06 04:48:29;;;;;;;18.23;9.18;;;9.20;99.90;;;;;;5085419;28;20108;-71
2022/04/06 04:50:54;;;;;;;17.83;9.43;;;9.20;99.90;;;;;;5085121;28;20040;-70
2022/04/06 04:53:20;;;;;;;18.17;9.95;;;9.20;99.90;;;;;;5069444;28;20831;-70
2022/04/06 04:55:46;;;;;;;17.05;8.55;;;9.20;99.90;;;;;;5081942;28;20530;-70
2022/04/06 04:58:12;;;;;;;16.40;7.90;;;9.10;99.90;;;;;;5067849;28;20071;-70
2022/04/06 05:00:38;;;;;;;20.45;9.30;;;9.10;99.90;;;;;;5083019;28;20043;-69
2022/04/06 05:03:05;;;;;;;18.42;8.73;;;9.10;99.90;;;;;;5084354;28;20092;-70
2022/04/06 05:05:31;;;;;;;15.25;8.05;;;9.10;99.90;;;;;;5065457;28;20047;-73
2022/04/06 05:07:58;;;;;;;16.85;8.02;;;9.00;99.90;;;;;;5064298;28;20079;-72
2022/04/06 05:10:25;;;;;;;15.70;8.02;;;9.10;99.90;;;;;;5064544;28;20548;-70
2022/04/06 05:12:52;;;;;;;16.20;6.55;;;9.00;99.90;;;;;;5049897;28;20521;-70
2022/04/06 05:15:19;;;;;;;18.45;7.03;;;9.00;99.90;;;;;;5081364;28;20465;-70
2022/04/06 05:17:45;;;;;;;18.40;6.82;;;9.00;99.90;;;;;;5062960;28;20044;-69
2022/04/06 05:20:12;;;;;;;16.98;6.25;;;9.00;99.90;;;;;;5081196;28;20040;-69
2022/04/06 05:22:38;;;;;;;15.73;6.40;;;9.00;99.90;;;;;;5083092;28;20048;-71
2022/04/06 05:25:07;;;;;;;15.65;5.72;;;9.00;99.90;;;;;;5079524;28;20039;-71
2022/04/06 05:27:43;;;;;;;15.95;6.25;;;9.00;99.90;;;;;;5065625;28;20052;-71
2022/04/06 05:30:09;;;;;;;11.57;5.25;;;9.00;99.90;;;;;;5086470;28;20126;-70
2022/04/06 05:32:34;;;;;;;13.00;5.75;;;9.00;99.90;;;;;;5068552;28;20048;-70
2022/04/06 05:35:00;;;;;;;11.27;5.15;;;9.00;99.90;;;;;;5067016;28;20050;-71
2022/04/06 05:37:26;;;;;;;12.18;5.65;;;8.90;99.90;;;;;;5064614;28;20044;-72
2022/04/06 05:39:52;;;;;;;14.25;5.88;;;8.90;99.90;;;;;;5083934;28;20058;-71
2022/04/06 05:42:17;;;;;;;16.00;5.88;;;8.90;99.90;;;;;;5049201;28;20043;-72
2022/04/06 05:44:43;;;;;;;14.50;6.28;;;8.90;99.90;;;;;;5076516;28;20101;-72
2022/04/06 05:47:09;;;;;;;13.85;6.97;;;8.90;99.90;;;;;;5081866;28;20035;-71
2022/04/06 05:49:35;;;;;;;14.68;5.95;;;8.90;99.90;;;;;;5065080;28;20118;-71
2022/04/06 05:52:01;;;;;;;12.70;6.07;;;8.90;99.90;;;;;;5065208;28;20046;-70
2022/04/06 05:54:26;;;;;;;14.02;6.93;;;8.90;99.90;;;;;;5069226;28;20547;-71
2022/04/06 05:56:52;;;;;;;12.07;5.70;;;8.90;99.90;;;;;;5063554;28;20043;-71
2022/04/06 05:59:18;;;;;;;17.58;6.22;;;8.90;99.90;;;;;;5046442;28;20691;-71
2022/04/06 06:01:44;;;;;;;13.73;5.47;;;8.90;99.90;;;;;;5061050;28;20054;-71
2022/04/06 06:04:09;;;;;;;14.48;5.45;;;8.90;99.90;;;;;;5049958;28;20039;-70
2022/04/06 06:06:35;;;;;;;12.57;5.65;;;8.90;99.90;;;;;;5063598;28;20050;-72
2022/04/06 06:09:01;;;;;;;13.52;6.00;;;8.80;99.90;;;;;;5096632;28;20168;-71
2022/04/06 06:11:27;;;;;;;13.95;5.85;;;8.80;99.90;;;;;;5066219;28;20126;-71
2022/04/06 06:13:53;;;;;;;14.88;6.18;;;8.80;99.90;;;;;;5083203;28;20260;-72
2022/04/06 06:16:18;;;;;;;15.05;6.13;;;8.80;99.90;;;;;;5100279;28;20277;-71
2022/04/06 06:18:44;;;;;;;17.55;6.03;;;8.70;99.90;;;;;;5075484;28;20044;-77
2022/04/06 06:21:10;;;;;;;14.68;6.47;;;8.70;99.90;;;;;;5116676;27;20040;-74
2022/04/06 06:23:36;;;;;;;14.30;6.00;;;8.60;99.90;;;;;;5117094;27;20530;-75
2022/04/06 06:26:01;;;;;;;12.80;5.75;;;8.60;99.90;;;;;;5085449;28;20043;-74
2022/04/06 06:28:27;;;;;;;13.80;6.40;;;8.60;99.90;;;;;;5067471;28;20095;-75
2022/04/06 06:30:53;;;;;;;13.52;5.53;;;8.60;99.90;;;;;;5067930;28;20043;-75
2022/04/06 06:33:19;;;;;;;12.90;5.60;;;8.50;99.90;;;;;;5118369;27;20048;-74
2022/04/06 06:35:45;;;;;;;14.05;4.65;;;8.50;99.90;;;;;;5101516;28;20486;-74
2022/04/06 06:38:11;;;;;;;13.43;6.30;;;8.50;99.90;;;;;;5083862;28;20059;-75
2022/04/06 06:40:37;;;;;;;15.43;5.88;;;8.50;99.90;;;;;;5068874;28;20044;-74
2022/04/06 06:43:03;;;;;;;12.35;5.57;;;8.50;99.90;;;;;;5085655;28;20043;-72
2022/04/06 06:45:29;;;;;;;11.82;4.88;;;8.50;99.90;;;;;;5086711;28;20398;-71
2022/04/06 06:47:58;;;;;;;12.45;5.93;;;8.50;99.90;;;;;;5069610;28;20046;-71
2022/04/06 06:50:24;;;;;;;13.48;5.40;;;8.50;99.90;;;;;;5069255;28;20039;-72
2022/04/06 06:52:50;;;;;;;11.75;4.65;;;8.50;99.90;;;;;;5066827;28;20051;-71
2022/04/06 06:55:18;;;;;;;13.27;4.72;;;8.50;99.90;;;;;;5068064;28;20477;-71
2022/04/06 06:57:44;;;;;;;15.43;5.40;;;8.50;99.90;;;;;;5118922;27;20470;-71
2022/04/06 07:00:13;;;;;;;16.17;6.68;;;8.50;99.90;;;;;;5085291;28;20047;-71
2022/04/06 07:02:40;;;;;;;10.48;4.72;;;8.50;99.90;;;;;;5064645;28;20048;-71
2022/04/06 07:05:06;;;;;;;11.32;5.03;;;8.50;99.90;;;;;;5067127;28;20044;-72
2022/04/06 07:07:32;;;;;;;12.80;4.82;;;8.50;99.90;;;;;;5066669;28;20322;-71
2022/04/06 07:10:00;;;;;;;12.40;4.63;;;8.50;99.90;;;;;;5049401;28;20391;-72
2022/04/06 07:12:28;;;;;;;9.82;4.60;;;8.50;99.90;;;;;;5102719;28;20047;-73
2022/04/06 07:14:54;;;;;;;12.65;5.00;;;8.50;99.90;;;;;;5084128;28;20051;-70
2022/04/06 07:17:20;;;;;;;12.05;5.07;;;8.50;99.90;;;;;;5050749;28;20143;-72
2022/04/06 07:19:46;;;;;;;14.23;5.38;;;8.50;99.90;;;;;;5066329;28;20050;-70
2022/04/06 07:22:12;;;;;;;12.73;4.50;;;8.50;99.90;;;;;;5084725;28;20817;-71
2022/04/06 07:24:40;;;;;;;14.68;5.88;;;8.50;99.90;;;;;;5101082;28;20275;-72
2022/04/06 07:27:05;;;;;;;17.15;5.97;;;8.60;99.90;;;;;;5055288;28;20117;-71
2022/04/06 07:29:31;;;;;;;14.70;5.93;;;8.60;99.90;;;;;;5047149;28;20494;-72
2022/04/06 07:31:57;;;;;;;14.93;6.07;;;8.60;99.90;;;;;;5064278;28;20442;-71
2022/04/06 07:34:23;;;;;;;16.95;5.65;;;8.60;99.90;;;;;;5068819;28;20039;-72
2022/04/06 07:36:49;;;;;;;15.55;5.90;;;8.60;99.90;;;;;;5083875;28;20049;-71
2022/04/06 07:39:15;;;;;;;13.98;6.40;;;8.60;99.90;;;;;;5067360;28;20150;-72
2022/04/06 07:41:41;;;;;;;15.82;5.88;;;8.60;99.90;;;;;;5060239;28;20486;-72
2022/04/06 07:44:07;;;;;;;17.35;6.13;;;8.60;99.90;;;;;;5052845;28;20055;-71
2022/04/06 07:46:34;;;;;;;16.20;6.30;;;8.60;99.90;;;;;;5089604;28;20410;-70
2022/04/06 07:49:00;;;;;;;19.33;6.32;;;8.60;99.90;;;;;;5089069;28;20178;-70
2022/04/06 07:51:26;;;;;;;15.13;6.22;;;8.70;99.90;;;;;;5084559;28;20127;-71
2022/04/06 07:53:52;;;;;;;13.63;5.72;;;8.70;99.90;;;;;;5084519;28;20099;-71
2022/04/06 07:56:18;;;;;;;14.93;7.25;;;8.80;99.90;;;;;;5067900;28;20055;-71
2022/04/06 07:58:44;;;;;;;14.80;6.22;;;8.80;99.90;;;;;;5100852;28;20047;-73
2022/04/06 08:01:09;;;;;;;16.67;7.13;;;8.90;99.90;;;;;;5086493;28;20043;-71
2022/04/06 08:03:38;;;;;;;18.60;8.18;;;8.90;99.90;;;;;;5069694;28;20035;-71
2022/04/06 08:06:04;;;;;;;17.80;7.68;;;8.90;99.90;;;;;;5054978;28;20407;-72
2022/04/06 08:08:33;;;;;;;17.08;6.55;;;8.90;99.90;;;;;;5087789;28;20089;-74
2022/04/06 08:10:59;;;;;;;15.80;7.80;;;8.90;99.90;;;;;;5070615;28;20482;-74
2022/04/06 08:13:27;;;;;;;19.35;6.80;;;8.90;99.90;;;;;;5053258;28;20046;-72
2022/04/06 08:15:53;;;;;;;18.60;7.63;;;8.90;99.90;;;;;;5087855;28;20051;-74
2022/04/06 08:18:22;;;;;;;20.38;9.05;;;8.90;99.90;;;;;;5088323;28;20044;-73
2022/04/06 08:20:47;;;;;;;20.73;8.93;;;8.90;99.90;;;;;;5086051;28;20108;-73
2022/04/06 08:23:15;;;;;;;16.63;9.30;;;8.90;99.90;;;;;;5070376;28;20051;-74
2022/04/06 08:25:41;;;;;;;20.05;9.18;;;8.90;99.90;;;;;;5087764;28;20043;-74
2022/04/06 08:28:08;;;;;;;19.77;10.30;;;8.90;99.90;;;;;;5072679;28;20044;-74
2022/04/06 08:30:39;;;;;;;18.45;9.68;;;8.90;99.90;;;;;;5088134;28;20455;-74
2022/04/06 08:33:06;;;;;;;21.27;10.60;;;8.90;99.90;;;;;;5072395;28;20548;-75
2022/04/06 08:35:31;;;;;;;20.15;10.43;;;8.80;99.90;;;;;;5070432;28;20511;-75
2022/04/06 08:37:57;;;;;;;19.98;10.40;;;8.90;99.90;;;;;;5070309;28;20083;-75
2022/04/06 08:40:26;;;;;;;22.05;10.18;;;8.80;99.90;;;;;;5083398;28;20059;-75
2022/04/06 08:42:53;;;;;;;20.33;9.20;;;8.90;99.90;;;;;;5078765;28;20057;-74
2022/04/06 08:45:19;;;;;;;18.88;9.50;;;8.90;99.90;;;;;;5063278;28;20044;-77
2022/04/06 08:47:48;;;;;;;20.33;9.70;;;8.90;99.90;;;;;;5046511;28;20113;-75
2022/04/06 08:50:16;;;;;;;19.80;8.98;;;8.80;99.90;;;;;;5080022;28;20040;-75
2022/04/06 08:52:42;;;;;;;21.95;9.57;;;8.90;99.90;;;;;;5080725;28;20123;-75
2022/04/06 08:55:08;;;;;;;24.45;8.63;;;8.90;99.90;;;;;;5082622;28;20317;-76
2022/04/06 08:57:35;;;;;;;14.13;8.63;;;8.90;99.90;;;;;;5082978;28;20048;-75
2022/04/06 09:00:00;;;;;;;15.85;7.80;;;8.90;99.90;;;;;;5066884;28;20458;-76
2022/04/06 09:02:27;;;;;;;18.35;7.45;;;8.90;99.90;;;;;;5081399;28;20060;-76
2022/04/06 09:04:54;;;;;;;16.40;7.47;;;8.90;99.90;;;;;;5065856;28;20199;-75
2022/04/06 09:07:21;;;;;;;16.33;7.40;;;9.00;99.90;;;;;;5066782;28;20048;-74
2022/04/06 09:09:55;;;;;;;15.73;6.85;;;9.00;99.90;;;;;;5084058;28;20068;-75
2022/04/06 09:12:29;;;;;;;16.95;6.25;;;9.00;99.90;;;;;;5084090;28;20582;-74
2022/04/06 09:15:11;;;;;;;15.13;6.22;;;9.10;99.90;;;;;;5082821;28;20148;-75
2022/04/06 09:17:46;;;;;;;15.95;5.95;;;9.10;99.90;;;;;;5065868;28;20051;-74
2022/04/06 09:20:13;;;;;;;10.95;5.25;;;9.20;99.90;;;;;;5081408;28;20048;-75
2022/04/06 09:22:40;;;;;;;12.90;5.40;;;9.30;99.90;;;;;;5049418;28;20086;-74
2022/04/06 09:25:06;;;;;;;14.10;6.13;;;9.30;99.90;;;;;;5082422;28;20294;-75
2022/04/06 09:27:33;;;;;;;11.20;5.18;;;9.30;99.90;;;;;;5082574;28;20052;-75
2022/04/06 09:29:59;;;;;;;15.20;5.75;;;9.40;99.90;;;;;;5082805;28;20044;-74
2022/04/06 09:32:25;;;;;;;12.20;5.80;;;9.40;99.90;;;;;;5083627;28;20056;-75
2022/04/06 09:34:51;;;;;;;12.38;4.60;;;9.40;99.90;;;;;;5084160;28;20052;-74
2022/04/06 09:37:31;;;;;;;12.05;4.82;;;9.50;99.90;;;;;;5067498;28;20459;-74
2022/04/06 09:40:06;;;;;;;14.77;5.65;;;9.50;99.90;;;;;;5080384;28;20108;-74
2022/04/06 09:42:32;;;;;;;11.77;5.85;;;9.50;99.90;;;;;;5083926;28;20235;-73
2022/04/06 09:48:02;;;;;;;10.43;5.65;;;9.50;99.90;;;;;;5083069;28;20052;-75
2022/04/06 09:50:28;;;;;;;14.15;5.88;;;9.60;99.90;;;;;;5066961;28;20047;-75
2022/04/06 09:52:57;;;;;;;15.57;6.80;;;9.60;99.90;;;;;;5065873;28;20048;-75
2022/04/06 09:55:24;;;;;;;14.75;6.55;;;9.60;99.90;;;;;;5065536;28;20124;-76
2022/04/06 09:57:52;;;;;;;15.20;6.32;;;9.70;99.90;;;;;;5082124;28;20460;-75
2022/04/06 10:00:20;;;;;;;17.70;7.25;;;9.70;99.90;;;;;;5081990;28;20055;-75
2022/04/06 10:02:49;;;;;;;13.82;6.95;;;9.70;99.90;;;;;;5080704;28;20086;-73
2022/04/06 10:05:18;;;;;;;10.88;6.68;;;9.80;99.90;;;;;;5065266;28;20139;-73
2022/04/06 10:07:43;;;;;;;13.70;7.68;;;9.80;99.90;;;;;;5080683;28;20521;-74
2022/04/06 10:10:13;;;;;;;12.40;7.88;;;9.90;99.90;;;;;;5064636;28;20075;-74
2022/04/06 10:12:39;;;;;;;16.80;8.65;;;9.90;99.90;;;;;;5081544;28;20189;-74
2022/04/06 10:15:06;;;;;;;14.55;7.47;;;9.90;99.90;;;;;;5066540;28;20062;-72
2022/04/06 10:17:32;;;;;;;15.32;8.23;;;9.90;99.90;;;;;;5081277;28;20047;-73
2022/04/06 10:20:10;;;;;;;15.60;8.20;;;9.90;99.90;;;;;;5059676;28;20040;-73
2022/04/06 10:22:58;;;;;;;14.00;7.97;;;10.00;99.90;;;;;;5060978;28;20087;-71
2022/04/06 10:25:48;;;;;;;14.65;8.15;;;10.00;99.90;;;;;;5061611;28;20419;-73
2022/04/06 10:28:16;;;;;;;17.25;8.32;;;10.00;99.90;;;;;;5013321;28;20056;-72
2022/04/06 10:31:11;;;;;;;16.50;9.55;;;10.00;99.90;;;;;;5044270;28;20406;-75
2022/04/06 10:33:37;;;;;;;19.13;9.75;;;10.00;99.90;;;;;;5044260;28;20078;-73
2022/04/06 10:36:17;;;;;;;17.05;9.10;;;10.00;99.90;;;;;;5062783;28;20043;-74
2022/04/06 10:39:05;;;;;;;15.43;9.10;;;10.10;99.90;;;;;;5082468;28;20044;-74
2022/04/06 10:41:37;;;;;;;14.50;8.52;;;10.10;99.90;;;;;;5052638;28;20135;-74
2022/04/06 10:44:03;;;;;;;16.65;9.32;;;10.10;99.90;;;;;;5061469;28;20580;-74
2022/04/06 10:46:42;;;;;;;16.17;8.95;;;10.00;99.90;;;;;;5046151;28;20127;-74
2022/04/06 10:49:09;;;;;;;13.68;8.48;;;10.00;99.90;;;;;;5062511;28;20056;-75
2022/04/06 10:51:43;;;;;;;20.80;9.73;;;10.00;99.90;;;;;;5062346;28;20040;-72
2022/04/06 10:54:12;;;;;;;15.85;8.63;;;10.10;99.90;;;;;;5061146;28;20052;-73
2022/04/06 10:56:50;;;;;;;17.48;9.57;;;10.10;99.90;;;;;;5060440;28;20522;-72
2022/04/06 10:59:20;;;;;;;15.57;9.00;;;10.10;99.90;;;;;;5061097;28;20131;-74
2022/04/06 11:01:48;;;;;;;13.57;8.63;;;10.10;99.90;;;;;;5044237;28;20504;-74
2022/04/06 11:04:22;;;;;;;15.82;8.57;;;10.10;99.90;;;;;;5042196;28;20052;-73
2022/04/06 11:06:49;;;;;;;17.08;9.57;;;10.20;99.90;;;;;;5043975;28;20059;-74
2022/04/06 11:12:19;;;;;;;21.25;12.65;;;10.20;99.90;;;;;;5060569;28;20053;-74
2022/04/06 11:14:47;;;;;;;18.70;13.27;;;10.10;99.90;;;;;;5044675;28;20052;-72
2022/04/06 11:17:48;;;;;;;20.17;14.35;;;10.00;99.90;;;;;;5045539;28;20403;-73
2022/04/06 11:20:18;;;;;;;;;;;10.00;99.90;;;;;;5042768;28;20048;-74
2022/04/06 11:22:56;;;;;;;21.73;15.85;;;9.90;99.90;;;;;;5077667;28;19927;-74
2022/04/06 11:25:27;;;;;;;22.63;17.55;;;9.90;99.90;;;;;;5061631;28;20044;-72
2022/04/06 11:27:55;;;;;;;22.33;16.35;;;9.80;99.90;;;;;;5059323;28;20236;-71
2022/04/06 11:30:26;;;;;;;17.52;15.65;;;9.90;99.90;;;;;;5043922;28;20040;-70
2022/04/06 11:32:53;;;;;;;20.63;15.90;;;9.90;99.90;;;;;;5060955;28;20690;-72
2022/04/06 11:35:19;;;;;;;21.63;15.55;;;10.00;99.90;;;;;;5060388;28;20147;-72
2022/04/06 11:37:47;;;;;;;18.67;15.52;;;10.10;99.90;;;;;;5027220;28;20424;-71
2022/04/06 11:40:15;;;;;;;22.58;15.80;;;10.20;99.90;;;;;;5053987;28;20114;-72
2022/04/06 11:42:41;;;;;;;18.50;14.35;;;10.30;99.90;;;;;;5080150;28;20044;-72
2022/04/06 11:45:10;;;;;;;20.15;15.32;;;10.30;99.90;;;;;;5079915;28;20082;-75
2022/04/06 11:47:38;;;;;;;19.88;13.45;;;10.20;99.90;;;;;;5043774;28;20055;-74
2022/04/06 11:50:10;;;;;;;17.77;13.02;;;10.20;99.90;;;;;;5027763;28;20154;-74
2022/04/06 11:52:40;;;;;;;19.10;14.48;;;10.20;99.90;;;;;;5079995;28;20060;-74
2022/04/06 11:55:07;;;;;;;19.63;13.00;;;10.20;99.90;;;;;;5066464;28;20056;-73
2022/04/06 11:57:38;;;;;;;19.50;14.40;;;10.20;99.90;;;;;;5065226;28;20080;-73
2022/04/06 12:00:06;;;;;;;21.45;13.48;;;10.20;99.90;;;;;;5081916;28;20044;-73
2022/04/06 12:02:53;;;;;;;21.30;14.30;;;10.30;99.90;;;;;;5063902;28;20056;-75
2022/04/06 12:05:21;;;;;;;18.27;13.60;;;10.50;99.90;;;;;;5064400;28;20055;-75
2022/04/06 12:07:47;;;;;;;20.30;13.57;;;10.60;99.90;;;;;;5080853;28;20052;-73
2022/04/06 12:10:14;;;;;;;18.98;13.30;;;10.70;99.90;;;;;;5081229;28;20036;-72
2022/04/06 12:12:41;;;;;;;16.52;12.52;;;10.80;99.90;;;;;;5061715;28;20048;-74
2022/04/06 12:15:09;;;;;;;17.45;13.07;;;10.80;99.90;;;;;;5063418;28;20116;-73
2022/04/06 12:17:37;;;;;;;18.50;13.73;;;10.70;99.90;;;;;;5079159;28;20475;-72
2022/04/06 12:20:25;;;;;;;20.95;12.32;;;10.70;99.90;;;;;;5046074;28;20089;-73
2022/04/06 12:23:05;;;;;;;18.05;13.07;;;10.70;99.90;;;;;;5060328;28;20052;-73
2022/04/06 12:25:33;;;;;;;16.17;12.10;;;10.80;99.90;;;;;;5043040;28;20036;-73
2022/04/06 12:28:29;;;;;;;20.33;12.38;;;10.90;99.90;;;;;;5079595;28;20283;-73
2022/04/06 12:31:31;;;;;;;14.80;10.50;;;11.00;99.90;;;;;;5047398;28;20139;-74
2022/04/06 12:33:57;;;;;;;17.73;11.13;;;11.30;99.90;;;;;;5067001;28;20048;-74
2022/04/06 12:36:28;;;;;;;18.63;11.85;;;11.30;99.90;;;;;;5050196;28;20295;-74
2022/04/06 12:39:00;;;;;;;17.00;11.48;;;11.40;99.90;;;;;;5072062;28;20107;-75
2022/04/06 12:41:29;;;;;;;16.20;11.05;;;11.50;99.90;;;;;;5083712;28;20549;-75
2022/04/06 12:43:56;;;;;;;21.20;11.70;;;11.50;99.90;;;;;;5083238;28;20484;-73
2022/04/06 12:46:42;;;;;;;15.90;11.70;;;11.50;99.90;;;;;;5083476;28;20113;-73
2022/04/06 12:49:27;;;;;;;16.73;11.25;;;11.40;99.90;;;;;;5083424;28;20130;-74
2022/04/06 12:52:15;;;;;;;16.50;10.68;;;11.30;99.90;;;;;;5084208;28;20050;-72
2022/04/06 12:54:52;;;;;;;15.60;10.30;;;11.30;99.90;;;;;;5083645;28;20056;-75